Portada
METAR-TAF:

METAR-TAF

Aeroports :

Defiance Memorial Airport

Defiance, Ohio, Estats Units d'Amèrica

latitud: 41-20-11N, longitud: 084-25-46W, altitud: 215 m

Observació

L'informe es va fer fa 44 minuts, a les 01:53 UTC
Vent calma
Temperatura 24°C
Humitat 83%
Pressió 1015 hPa
Visibilitat: 16.1 km
Cel cobert a una alçada de 11000 ft

METAR: KDFI 280153Z AUTO 00000KT 10SM OVC110 24/21 A2996 RMK AO2 SLP139 T02390211

Hora: 22:37 (02:37 UTC)


TAF: manca

Observacions i pronòstics meteorològics de més de 4000 aeroports (METAR i TAF).

Les estacions disponibles són els punts grocs i vermells al mapa.

Posi el ratolí al punt desitjat per veure el nom de l'estació.

Feu clic per veure les observacions i els pronòstics meteorològics.

Per canviar el mapa: feu clic els botons verds amb una creu de color negre per apropar; al botó verd amb un guió per allunyar la imatge; o en les fletxes verdes per a mapes adjacents.


METAR-TAF: